createdAt,value
2023-01-08T00:00:13.309Z,82.51
2023-01-08T00:02:40.179Z,81.69
2023-01-08T00:05:07.604Z,81.72
2023-01-08T00:07:38.389Z,81.45
2023-01-08T00:10:06.440Z,80.69
2023-01-08T00:12:33.193Z,79.92
2023-01-08T00:15:00.092Z,81.52
2023-01-08T00:17:29.042Z,80.29
2023-01-08T00:19:55.866Z,80.91
2023-01-08T00:22:23.760Z,79.40
2023-01-08T00:24:50.470Z,79.31
2023-01-08T00:27:17.173Z,78.85
2023-01-08T00:29:44.354Z,78.56
2023-01-08T00:32:11.257Z,79.35
2023-01-08T00:34:39.665Z,78.67
2023-01-08T00:37:06.385Z,79.41
2023-01-08T00:39:35.469Z,79.11
2023-01-08T00:42:04.236Z,78.36
2023-01-08T00:44:31.036Z,79.04
2023-01-08T00:46:57.766Z,79.35
2023-01-08T00:49:25.874Z,80.79
2023-01-08T00:51:54.385Z,80.70
2023-01-08T00:54:23.415Z,79.51
2023-01-08T00:56:51.319Z,78.78
2023-01-08T00:59:18.131Z,78.70
2023-01-08T01:01:49.534Z,78.89
2023-01-08T01:04:16.404Z,78.88
2023-01-08T01:06:44.301Z,78.14
2023-01-08T01:09:12.327Z,81.49
2023-01-08T01:11:39.317Z,79.95
2023-01-08T01:14:06.091Z,79.38
2023-01-08T01:16:33.408Z,81.22
2023-01-08T01:19:00.356Z,82.07
2023-01-08T01:21:30.795Z,81.90
2023-01-08T01:23:59.269Z,81.80
2023-01-08T01:26:27.291Z,81.56
2023-01-08T01:28:56.868Z,80.59
2023-01-08T01:31:24.975Z,81.54
2023-01-08T01:33:52.470Z,80.68
2023-01-08T01:36:20.233Z,81.14
2023-01-08T01:38:48.175Z,80.17
2023-01-08T01:41:25.486Z,79.51
2023-01-08T01:44:23.504Z,78.98
2023-01-08T01:47:24.503Z,79.46
2023-01-08T01:50:14.520Z,79.14
2023-01-08T01:52:46.136Z,79.42
2023-01-08T01:55:26.243Z,78.86
2023-01-08T01:58:08.766Z,79.46
2023-01-08T02:00:39.836Z,82.63
2023-01-08T02:03:08.622Z,81.78
2023-01-08T02:05:55.787Z,81.00
2023-01-08T02:08:47.637Z,81.88
2023-01-08T02:11:22.491Z,80.24
2023-01-08T02:13:54.333Z,79.47
2023-01-08T02:16:28.169Z,79.34
2023-01-08T02:19:01.752Z,80.39
2023-01-08T02:21:31.355Z,79.09
2023-01-08T02:24:08.413Z,78.85
2023-01-08T02:26:36.547Z,80.71
2023-01-08T02:29:15.403Z,79.26
2023-01-08T02:31:42.889Z,78.57
2023-01-08T02:34:10.195Z,78.58
2023-01-08T02:36:53.499Z,80.86
2023-01-08T02:39:20.168Z,81.40
2023-01-08T02:41:53.159Z,83.55
2023-01-08T02:44:26.867Z,81.62
2023-01-08T02:46:56.359Z,80.16
2023-01-08T02:49:24.341Z,80.48
2023-01-08T02:51:54.108Z,80.63
2023-01-08T02:54:23.738Z,80.44
2023-01-08T02:56:53.601Z,79.89
2023-01-08T02:59:24.471Z,80.55
2023-01-08T03:01:52.384Z,83.15
2023-01-08T03:04:20.485Z,86.44
2023-01-08T03:06:48.588Z,84.17
2023-01-08T03:09:16.288Z,87.46
2023-01-08T03:11:50.869Z,89.06
2023-01-08T03:14:23.286Z,88.02
2023-01-08T03:16:55.939Z,87.78
2023-01-08T03:19:51.833Z,86.68
2023-01-08T03:22:19.393Z,86.28
2023-01-08T03:24:49.503Z,87.04
2023-01-08T03:27:18.442Z,86.40
2023-01-08T03:29:46.856Z,86.25
2023-01-08T03:32:16.249Z,86.48
2023-01-08T03:34:44.273Z,85.62
2023-01-08T03:37:11.821Z,84.92
2023-01-08T03:39:42.242Z,85.19
2023-01-08T03:42:10.892Z,84.50
2023-01-08T03:44:37.678Z,88.24
2023-01-08T03:47:04.986Z,84.76
2023-01-08T03:49:32.179Z,83.15
2023-01-08T03:51:58.847Z,82.93
2023-01-08T03:54:29.854Z,83.03
2023-01-08T03:56:56.863Z,81.94
2023-01-08T03:59:23.889Z,83.22
2023-01-08T04:01:51.042Z,81.78
2023-01-08T04:04:18.136Z,81.96
2023-01-08T04:06:44.930Z,85.86
2023-01-08T04:09:11.595Z,82.46
2023-01-08T04:11:38.332Z,81.73
2023-01-08T04:14:05.041Z,80.94
2023-01-08T04:16:31.950Z,80.16
2023-01-08T04:18:58.627Z,81.49
2023-01-08T04:21:25.394Z,81.87
2023-01-08T04:23:52.093Z,80.91
2023-01-08T04:26:18.797Z,82.98
2023-01-08T04:28:45.442Z,81.83
2023-01-08T04:31:12.234Z,82.34
2023-01-08T04:33:39.076Z,82.17
2023-01-08T04:36:06.261Z,83.82
2023-01-08T04:38:35.065Z,83.43
2023-01-08T04:41:02.459Z,83.31
2023-01-08T04:43:30.513Z,82.50
2023-01-08T04:46:00.882Z,82.53
2023-01-08T04:48:28.312Z,82.31
2023-01-08T04:50:55.295Z,86.32
2023-01-08T04:53:24.934Z,87.94
2023-01-08T04:55:51.616Z,86.00
2023-01-08T04:58:18.353Z,85.48
2023-01-08T05:00:45.052Z,88.96
2023-01-08T05:03:11.843Z,87.55
2023-01-08T05:05:38.903Z,87.56
2023-01-08T05:08:05.640Z,87.25
2023-01-08T05:10:32.363Z,86.09
2023-01-08T05:13:01.108Z,87.83
2023-01-08T05:15:28.233Z,88.36
2023-01-08T05:17:59.046Z,86.76
2023-01-08T05:20:26.128Z,85.57
2023-01-08T05:22:52.907Z,84.40
2023-01-08T05:25:19.760Z,84.50
2023-01-08T05:27:47.158Z,83.42
2023-01-08T05:30:14.024Z,83.19
2023-01-08T05:32:41.019Z,83.19
2023-01-08T05:35:08.063Z,85.24
2023-01-08T05:37:37.260Z,84.99
2023-01-08T05:40:04.432Z,84.41
2023-01-08T05:42:31.163Z,88.82
2023-01-08T05:44:57.886Z,87.11
2023-01-08T05:47:24.569Z,87.64
2023-01-08T05:49:51.378Z,88.33
2023-01-08T05:52:18.108Z,90.08
2023-01-08T05:54:45.032Z,95.97
2023-01-08T05:57:11.795Z,99.65
2023-01-08T05:59:38.517Z,97.65
2023-01-08T06:02:05.273Z,95.63
2023-01-08T06:04:32.033Z,93.98
2023-01-08T06:06:58.720Z,92.74
2023-01-08T06:09:25.467Z,91.99
2023-01-08T06:11:53.331Z,93.69
2023-01-08T06:14:20.079Z,91.77
2023-01-08T06:16:46.847Z,91.38
2023-01-08T06:19:13.591Z,90.59
2023-01-08T06:21:40.391Z,89.55
2023-01-08T06:24:07.115Z,100.00
2023-01-08T06:26:33.782Z,96.28
2023-01-08T06:29:00.748Z,97.46
2023-01-08T06:31:27.523Z,96.68
2023-01-08T06:33:54.234Z,98.72
2023-01-08T06:36:21.209Z,96.08
2023-01-08T06:38:48.081Z,98.98
2023-01-08T06:41:14.883Z,100.00
2023-01-08T06:43:43.793Z,100.00
2023-01-08T06:46:10.686Z,100.00
2023-01-08T06:48:37.796Z,100.00
2023-01-08T06:51:05.320Z,100.00
2023-01-08T06:53:36.136Z,99.47
2023-01-08T06:56:04.028Z,100.00
2023-01-08T06:58:30.861Z,100.00
2023-01-08T07:00:59.136Z,100.00
2023-01-08T07:03:27.868Z,100.00
2023-01-08T07:05:55.039Z,100.00
2023-01-08T07:08:21.767Z,100.00
2023-01-08T07:10:48.777Z,100.00
2023-01-08T07:13:15.770Z,100.00
2023-01-08T07:15:42.892Z,100.00
2023-01-08T07:18:10.785Z,100.00
2023-01-08T07:20:37.776Z,99.65
2023-01-08T07:23:05.648Z,95.77
2023-01-08T07:25:32.842Z,94.60
2023-01-08T07:28:02.330Z,92.94
2023-01-08T07:30:30.649Z,90.76
2023-01-08T07:33:03.422Z,87.40
2023-01-08T07:35:30.447Z,85.75
2023-01-08T07:37:57.189Z,81.20
2023-01-08T07:40:24.008Z,78.74
2023-01-08T07:43:00.249Z,78.87
2023-01-08T07:45:27.743Z,76.86
2023-01-08T07:47:54.559Z,77.98
2023-01-08T07:50:21.292Z,77.63
2023-01-08T07:52:48.753Z,76.79
2023-01-08T07:55:15.734Z,77.49
2023-01-08T07:57:42.558Z,75.93
2023-01-08T08:00:09.730Z,75.92
2023-01-08T08:02:36.683Z,74.13
2023-01-08T08:05:03.632Z,70.91
2023-01-08T08:07:33.602Z,69.01
2023-01-08T08:10:00.480Z,68.11
2023-01-08T08:12:27.367Z,68.58
2023-01-08T08:14:54.036Z,67.21
2023-01-08T08:17:20.959Z,68.02
2023-01-08T08:19:47.692Z,67.61
2023-01-08T08:22:14.476Z,66.88
2023-01-08T08:24:41.346Z,67.66
2023-01-08T08:27:08.148Z,65.78
2023-01-08T08:29:34.960Z,64.82
2023-01-08T08:32:01.718Z,64.69
2023-01-08T08:34:28.414Z,67.62
2023-01-08T08:36:55.139Z,67.06
2023-01-08T08:39:21.931Z,68.84
2023-01-08T08:41:48.768Z,67.18
2023-01-08T08:44:15.490Z,64.38
2023-01-08T08:46:43.313Z,65.14
2023-01-08T08:49:10.093Z,64.93
2023-01-08T08:51:39.675Z,64.55
2023-01-08T08:54:06.371Z,61.02
2023-01-08T08:56:33.117Z,56.48
2023-01-08T08:58:59.839Z,55.97
2023-01-08T09:01:26.599Z,54.65
2023-01-08T09:03:53.431Z,53.01
2023-01-08T09:06:20.126Z,55.98
2023-01-08T09:08:46.790Z,60.97
2023-01-08T09:11:14.541Z,61.34
2023-01-08T09:13:41.508Z,60.07
2023-01-08T09:16:08.388Z,57.90
2023-01-08T09:18:35.138Z,56.53
2023-01-08T09:21:06.160Z,54.48
2023-01-08T09:23:33.439Z,52.53
2023-01-08T09:26:01.148Z,51.56
2023-01-08T09:28:27.905Z,57.41
2023-01-08T09:30:54.708Z,56.29
2023-01-08T09:33:21.473Z,57.48
2023-01-08T09:35:50.712Z,55.70
2023-01-08T09:38:17.532Z,55.22
2023-01-08T09:40:47.970Z,58.64
2023-01-08T09:43:19.709Z,56.82
2023-01-08T09:45:50.253Z,56.37
2023-01-08T09:48:18.219Z,56.14
2023-01-08T09:50:45.165Z,57.45
2023-01-08T09:53:14.245Z,61.28
2023-01-08T09:55:41.486Z,60.57
2023-01-08T09:58:27.035Z,64.49
2023-01-08T10:00:54.481Z,66.02
2023-01-08T10:03:23.182Z,67.44
2023-01-08T10:05:51.735Z,65.81
2023-01-08T10:08:18.801Z,66.26
2023-01-08T10:10:46.830Z,70.34
2023-01-08T10:13:14.363Z,68.57
2023-01-08T10:15:44.215Z,68.98
2023-01-08T10:18:12.450Z,68.76
2023-01-08T10:20:39.599Z,69.31
2023-01-08T10:23:14.187Z,71.53
2023-01-08T10:25:48.975Z,70.21
2023-01-08T10:28:23.142Z,72.03
2023-01-08T10:30:50.921Z,71.48
2023-01-08T10:33:25.161Z,71.17
2023-01-08T10:35:54.048Z,69.52
2023-01-08T10:38:26.810Z,69.83
2023-01-08T10:40:53.652Z,69.65
2023-01-08T10:43:21.391Z,68.53
2023-01-08T10:46:00.681Z,69.80
2023-01-08T10:48:32.889Z,67.94
2023-01-08T10:51:18.762Z,69.06
2023-01-08T10:53:45.639Z,69.55
2023-01-08T10:56:20.116Z,69.54
2023-01-08T10:58:46.997Z,70.12
2023-01-08T11:01:32.371Z,69.16
2023-01-08T11:04:01.411Z,67.65
2023-01-08T11:06:31.833Z,68.00
2023-01-08T11:09:00.483Z,67.50
2023-01-08T11:11:34.546Z,65.90
2023-01-08T11:14:04.454Z,66.96
2023-01-08T11:16:32.214Z,65.32
2023-01-08T11:18:58.920Z,63.51
2023-01-08T11:21:27.276Z,62.61
2023-01-08T11:24:23.310Z,61.55
2023-01-08T11:27:10.238Z,60.37
2023-01-08T11:29:55.940Z,60.11
2023-01-08T11:32:40.470Z,59.89
2023-01-08T11:35:25.967Z,59.36
2023-01-08T11:37:54.142Z,58.51
2023-01-08T11:40:30.109Z,57.64
2023-01-08T11:43:15.298Z,57.97
2023-01-08T11:45:57.526Z,56.55
2023-01-08T11:48:24.275Z,54.66
2023-01-08T11:51:05.053Z,55.94
2023-01-08T11:53:37.756Z,55.62
2023-01-08T11:56:04.609Z,54.16
2023-01-08T11:58:50.265Z,53.77
2023-01-08T12:01:26.217Z,54.06
2023-01-08T12:03:52.950Z,54.96
2023-01-08T12:06:27.823Z,55.45
2023-01-08T12:08:57.631Z,55.35
2023-01-08T12:11:28.169Z,55.57
2023-01-08T12:14:14.392Z,55.00
2023-01-08T12:16:41.135Z,54.10
2023-01-08T12:19:26.456Z,54.71
2023-01-08T12:22:08.333Z,55.04
2023-01-08T12:24:50.271Z,54.23
2023-01-08T12:27:20.468Z,55.04
2023-01-08T12:29:48.409Z,54.77
2023-01-08T12:32:38.236Z,55.39
2023-01-08T12:35:15.378Z,54.17
2023-01-08T12:37:45.748Z,54.80
2023-01-08T12:40:14.762Z,55.24
2023-01-08T12:42:50.288Z,55.56
2023-01-08T12:45:27.392Z,55.50
2023-01-08T12:48:00.738Z,56.28
2023-01-08T12:50:45.183Z,55.97
2023-01-08T12:53:11.901Z,55.54
2023-01-08T12:55:48.176Z,56.40
2023-01-08T12:58:15.038Z,56.54
2023-01-08T13:00:44.764Z,54.99
2023-01-08T13:03:15.159Z,55.48
2023-01-08T13:05:43.797Z,54.95
2023-01-08T13:08:29.517Z,55.04
2023-01-08T13:10:56.998Z,54.83
2023-01-08T13:13:29.710Z,54.34
2023-01-08T13:16:11.624Z,53.84
2023-01-08T13:18:38.950Z,53.11
2023-01-08T13:21:06.429Z,52.71
2023-01-08T13:23:35.341Z,52.09
2023-01-08T13:26:06.397Z,52.45
2023-01-08T13:28:42.730Z,51.87
2023-01-08T13:31:21.495Z,50.99
2023-01-08T13:33:49.423Z,51.72
2023-01-08T13:36:19.586Z,51.55
2023-01-08T13:38:46.382Z,51.86
2023-01-08T13:41:27.007Z,51.70
2023-01-08T13:44:14.035Z,52.41
2023-01-08T13:46:41.136Z,52.37
2023-01-08T13:49:12.001Z,52.36
2023-01-08T13:51:46.222Z,52.03
2023-01-08T13:54:13.156Z,52.45
2023-01-08T13:56:48.540Z,51.47
2023-01-08T13:59:24.636Z,53.10
2023-01-08T14:01:57.716Z,52.50
2023-01-08T14:04:24.930Z,53.79
2023-01-08T14:06:51.825Z,52.39
2023-01-08T14:09:25.635Z,51.70
2023-01-08T14:11:58.215Z,52.85
2023-01-08T14:14:25.041Z,52.62
2023-01-08T14:16:53.372Z,52.03
2023-01-08T14:19:25.126Z,53.06
2023-01-08T14:21:54.341Z,53.28
2023-01-08T14:24:22.571Z,52.92
2023-01-08T14:26:53.664Z,53.16
2023-01-08T14:29:21.529Z,53.59
2023-01-08T14:31:55.053Z,52.94
2023-01-08T14:34:23.103Z,53.40
2023-01-08T14:36:51.797Z,53.71
2023-01-08T14:39:26.132Z,53.58
2023-01-08T14:42:13.373Z,53.96
2023-01-08T14:44:42.341Z,54.25
2023-01-08T14:47:20.114Z,53.60
2023-01-08T14:49:56.082Z,53.93
2023-01-08T14:52:23.059Z,54.28
2023-01-08T14:54:51.979Z,54.91
2023-01-08T14:57:19.328Z,54.94
2023-01-08T14:59:52.289Z,54.91
2023-01-08T15:02:23.885Z,55.16
2023-01-08T15:05:00.611Z,55.31
2023-01-08T15:07:27.868Z,56.07
2023-01-08T15:09:59.187Z,55.79
2023-01-08T15:12:27.318Z,55.48
2023-01-08T15:14:55.505Z,55.59
2023-01-08T15:17:24.153Z,56.38
2023-01-08T15:19:56.052Z,56.73
2023-01-08T15:22:26.272Z,55.91
2023-01-08T15:25:00.710Z,56.60
2023-01-08T15:27:28.176Z,56.06
2023-01-08T15:30:04.195Z,56.31
2023-01-08T15:32:34.878Z,55.81
2023-01-08T15:35:01.928Z,56.61
2023-01-08T15:37:30.557Z,56.89
2023-01-08T15:39:57.361Z,56.87
2023-01-08T15:42:51.001Z,56.59
2023-01-08T15:45:21.015Z,56.60
2023-01-08T15:47:47.940Z,56.74
2023-01-08T15:50:14.814Z,56.56
2023-01-08T15:52:43.050Z,56.61
2023-01-08T15:55:16.018Z,56.37
2023-01-08T15:57:43.005Z,57.02
2023-01-08T16:00:12.140Z,57.38
2023-01-08T16:02:44.910Z,56.98
2023-01-08T16:05:13.324Z,57.46
2023-01-08T16:07:40.114Z,58.07
2023-01-08T16:10:07.112Z,59.11
2023-01-08T16:12:33.794Z,59.06
2023-01-08T16:15:00.546Z,59.03
2023-01-08T16:17:29.997Z,58.73
2023-01-08T16:19:56.649Z,59.10
2023-01-08T16:22:23.368Z,59.32
2023-01-08T16:24:50.053Z,59.48
2023-01-08T16:27:16.931Z,59.58
2023-01-08T16:29:45.526Z,60.23
2023-01-08T16:32:12.350Z,59.73
2023-01-08T16:34:39.091Z,61.87
2023-01-08T16:37:05.898Z,60.82
2023-01-08T16:39:32.702Z,60.81
2023-01-08T16:42:03.177Z,61.37
2023-01-08T16:44:29.988Z,60.91
2023-01-08T16:46:56.952Z,61.07
2023-01-08T16:49:23.694Z,61.08
2023-01-08T16:51:50.921Z,60.45
2023-01-08T16:54:17.723Z,60.93
2023-01-08T16:56:47.161Z,61.12
2023-01-08T16:59:22.673Z,61.21
2023-01-08T17:01:49.830Z,60.48
2023-01-08T17:04:16.657Z,60.89
2023-01-08T17:06:43.315Z,62.02
2023-01-08T17:09:11.619Z,61.55
2023-01-08T17:11:38.764Z,60.89
2023-01-08T17:14:05.520Z,60.92
2023-01-08T17:16:32.403Z,60.71
2023-01-08T17:19:00.729Z,60.27
2023-01-08T17:21:27.455Z,60.40
2023-01-08T17:23:54.189Z,61.11
2023-01-08T17:26:21.008Z,60.89
2023-01-08T17:28:47.840Z,60.78
2023-01-08T17:31:16.163Z,60.94
2023-01-08T17:33:43.941Z,61.69
2023-01-08T17:36:14.718Z,61.65
2023-01-08T17:38:43.039Z,62.34
2023-01-08T17:41:12.377Z,63.27
2023-01-08T17:43:39.147Z,62.12
2023-01-08T17:46:07.191Z,63.14
2023-01-08T17:48:34.503Z,64.50
2023-01-08T17:51:06.441Z,64.53
2023-01-08T17:53:34.119Z,64.28
2023-01-08T17:56:05.225Z,64.76
2023-01-08T17:58:31.851Z,65.30
2023-01-08T18:00:58.550Z,64.68
2023-01-08T18:03:25.298Z,64.90
2023-01-08T18:05:51.960Z,64.72
2023-01-08T18:08:18.814Z,64.86
2023-01-08T18:10:45.633Z,65.08
2023-01-08T18:13:12.278Z,64.81
2023-01-08T18:15:38.966Z,64.45
2023-01-08T18:18:05.840Z,64.69
2023-01-08T18:20:32.596Z,64.56
2023-01-08T18:22:59.406Z,64.47
2023-01-08T18:25:26.116Z,65.57
2023-01-08T18:27:53.029Z,64.82
2023-01-08T18:30:19.944Z,64.32
2023-01-08T18:32:46.638Z,66.05
2023-01-08T18:35:15.275Z,66.82
2023-01-08T18:37:42.110Z,65.69
2023-01-08T18:40:09.165Z,65.63
2023-01-08T18:42:36.001Z,65.73
2023-01-08T18:45:04.333Z,66.71
2023-01-08T18:47:30.982Z,66.30
2023-01-08T18:50:00.087Z,65.77
2023-01-08T18:52:26.810Z,65.36
2023-01-08T18:54:53.786Z,65.64
2023-01-08T18:57:20.629Z,67.05
2023-01-08T18:59:49.178Z,66.32
2023-01-08T19:02:31.000Z,66.58
2023-01-08T19:04:57.686Z,66.65
2023-01-08T19:07:24.455Z,66.04
2023-01-08T19:09:51.143Z,65.92
2023-01-08T19:12:17.812Z,66.10
2023-01-08T19:14:46.389Z,66.14
2023-01-08T19:17:13.839Z,66.80
2023-01-08T19:19:40.561Z,67.48
2023-01-08T19:22:07.480Z,68.03
2023-01-08T19:24:36.455Z,67.71
2023-01-08T19:27:03.819Z,67.49
2023-01-08T19:29:30.481Z,66.50
2023-01-08T19:31:57.281Z,67.74
2023-01-08T19:34:24.329Z,66.58
2023-01-08T19:36:51.131Z,67.39
2023-01-08T19:39:20.635Z,69.34
2023-01-08T19:42:06.016Z,67.70
2023-01-08T19:44:32.799Z,68.33
2023-01-08T19:46:59.437Z,66.95
2023-01-08T19:49:26.249Z,67.82
2023-01-08T19:51:53.134Z,66.52
2023-01-08T19:54:29.096Z,67.04
2023-01-08T19:56:56.054Z,66.33
2023-01-08T19:59:22.797Z,66.27
2023-01-08T20:01:49.591Z,68.29
2023-01-08T20:04:16.290Z,67.30
2023-01-08T20:06:43.063Z,67.75
2023-01-08T20:09:09.937Z,67.98
2023-01-08T20:11:36.821Z,67.76
2023-01-08T20:14:05.674Z,67.55
2023-01-08T20:16:32.451Z,67.24
2023-01-08T20:19:03.587Z,67.06
2023-01-08T20:21:31.537Z,66.96
2023-01-08T20:23:59.816Z,66.85
2023-01-08T20:26:27.604Z,66.47
2023-01-08T20:28:55.250Z,65.94
2023-01-08T20:31:22.961Z,66.48
2023-01-08T20:33:49.838Z,65.64
2023-01-08T20:36:18.187Z,66.53
2023-01-08T20:38:45.438Z,66.08
2023-01-08T20:41:12.565Z,65.77
2023-01-08T20:43:40.277Z,66.37
2023-01-08T20:46:09.902Z,65.96
2023-01-08T20:48:42.909Z,66.04
2023-01-08T20:51:12.458Z,66.24
2023-01-08T20:53:39.857Z,65.85
2023-01-08T20:56:08.192Z,66.03
2023-01-08T20:58:37.048Z,66.27
2023-01-08T21:01:05.460Z,66.73
2023-01-08T21:03:34.590Z,66.16
2023-01-08T21:06:11.244Z,65.62
2023-01-08T21:08:38.028Z,65.60
2023-01-08T21:11:05.871Z,65.49
2023-01-08T21:13:33.675Z,65.25
2023-01-08T21:16:02.235Z,64.71
2023-01-08T21:18:29.449Z,64.44
2023-01-08T21:21:00.441Z,64.56
2023-01-08T21:23:30.433Z,64.39
2023-01-08T21:25:58.266Z,63.68
2023-01-08T21:28:26.021Z,63.81
2023-01-08T21:30:53.309Z,63.54
2023-01-08T21:33:20.464Z,63.71
2023-01-08T21:35:50.969Z,63.18
2023-01-08T21:38:19.416Z,63.57
2023-01-08T21:40:46.191Z,62.86
2023-01-08T21:43:31.490Z,63.31
2023-01-08T21:46:01.715Z,63.68
2023-01-08T21:48:29.376Z,62.68
2023-01-08T21:50:56.127Z,63.54
2023-01-08T21:53:31.884Z,61.94
2023-01-08T21:56:02.306Z,64.75
2023-01-08T21:58:29.660Z,64.05
2023-01-08T22:00:56.468Z,63.69
2023-01-08T22:03:23.569Z,63.03
2023-01-08T22:05:59.460Z,63.25
2023-01-08T22:08:28.262Z,62.67
2023-01-08T22:10:55.374Z,62.26
2023-01-08T22:13:22.035Z,62.70
2023-01-08T22:15:48.737Z,62.41
2023-01-08T22:18:15.872Z,62.86
2023-01-08T22:20:48.049Z,63.16
2023-01-08T22:23:14.868Z,62.81
2023-01-08T22:25:41.554Z,62.36
2023-01-08T22:28:09.423Z,62.59
2023-01-08T22:30:37.608Z,62.13
2023-01-08T22:33:04.392Z,63.25
2023-01-08T22:35:31.167Z,63.81
2023-01-08T22:37:57.856Z,63.18
2023-01-08T22:40:24.688Z,63.14
2023-01-08T22:42:51.366Z,63.35
2023-01-08T22:45:18.109Z,64.49
2023-01-08T22:47:45.052Z,62.77
2023-01-08T22:50:13.307Z,62.53
2023-01-08T22:52:40.147Z,65.05
2023-01-08T22:55:07.063Z,63.52
2023-01-08T22:57:34.001Z,64.20
2023-01-08T23:00:00.652Z,63.17
2023-01-08T23:02:27.360Z,63.94
2023-01-08T23:04:54.535Z,63.19
2023-01-08T23:07:21.516Z,63.46
2023-01-08T23:09:48.323Z,63.96
2023-01-08T23:12:15.200Z,62.75
2023-01-08T23:14:42.257Z,62.42
2023-01-08T23:17:09.547Z,63.06
2023-01-08T23:19:36.850Z,63.01
2023-01-08T23:22:03.761Z,63.16
2023-01-08T23:24:33.275Z,63.07
2023-01-08T23:26:59.952Z,63.11
2023-01-08T23:29:31.491Z,62.63
2023-01-08T23:31:58.307Z,62.86
2023-01-08T23:34:25.271Z,62.13
2023-01-08T23:36:52.141Z,63.04
2023-01-08T23:39:18.951Z,63.82
2023-01-08T23:41:45.656Z,63.74
2023-01-08T23:44:13.221Z,64.10
2023-01-08T23:46:39.944Z,63.69
2023-01-08T23:49:10.166Z,63.10
2023-01-08T23:51:37.674Z,63.25
2023-01-08T23:54:04.327Z,62.79
2023-01-08T23:56:32.000Z,62.97
2023-01-08T23:58:59.226Z,63.64
